Terminal Aerodrome Forecast
Issued by NWS Blacksburg, VA

Current Version | Previous Version | Graphics & Text | Print | Product List | Glossary On
Versions: 1 2 3 4 5 6 7 8 9 10 11 12 13 14 15 16 17
000
FTUS41 KRNK 011721
TAFBLF
TAF
KBLF 011721Z 0118/0218 28010G18KT P6SM OVC025
     FM012300 28009KT P6SM SCT035
     FM020400 27008KT P6SM BKN015
     FM021400 28012G22KT P6SM BKN025=

USA.gov is the U.S. government's official web portal to all federal, state and local government web resources and services.